Terminal Aerodrome Forecast
Issued by NWS

Home | Current Version | Previous Version | Text Only | Print | Product List | Glossary On
Versions: 1 2 3 4 5 6 7 8 9 10 11 12 13 14 15 16 17
000
FTUS43 KSGF 251700
TAFBBG
TAF
KBBG 251732Z 2518/2618 30014G25KT P6SM -RA SCT015 OVC025
      TEMPO 2518/2521 4SM -RA BR BKN015
     FM260000 31013G22KT P6SM OVC015
     FM260800 31006KT 6SM BR BKN015
     FM261400 27006KT P6SM SCT015=

USA.gov is the U.S. government's official web portal to all federal, state and local government web resources and services.